sensor_id;sensor_type;location;lat;lon;timestamp;P1;durP1;ratioP1;P2;durP2;ratioP2
35891;SDS011;21993;42.672;23.296;2023-05-19T00:00:34;4.50;;;4.10;;
35891;SDS011;21993;42.672;23.296;2023-05-19T00:03:01;7.27;;;5.03;;
35891;SDS011;21993;42.672;23.296;2023-05-19T00:05:28;7.17;;;5.17;;
35891;SDS011;21993;42.672;23.296;2023-05-19T00:07:58;6.83;;;4.80;;
35891;SDS011;21993;42.672;23.296;2023-05-19T00:10:25;5.90;;;5.00;;
35891;SDS011;21993;42.672;23.296;2023-05-19T00:12:55;7.27;;;4.87;;
35891;SDS011;21993;42.672;23.296;2023-05-19T00:15:21;5.10;;;4.60;;
35891;SDS011;21993;42.672;23.296;2023-05-19T00:17:47;7.67;;;4.83;;
35891;SDS011;21993;42.672;23.296;2023-05-19T00:20:12;6.40;;;5.10;;
35891;SDS011;21993;42.672;23.296;2023-05-19T00:22:38;6.37;;;5.30;;
35891;SDS011;21993;42.672;23.296;2023-05-19T00:25:04;6.57;;;5.20;;
35891;SDS011;21993;42.672;23.296;2023-05-19T00:27:30;7.00;;;5.33;;
35891;SDS011;21993;42.672;23.296;2023-05-19T00:29:55;6.30;;;5.60;;
35891;SDS011;21993;42.672;23.296;2023-05-19T00:32:21;5.40;;;4.77;;
35891;SDS011;21993;42.672;23.296;2023-05-19T00:34:46;5.17;;;4.63;;
35891;SDS011;21993;42.672;23.296;2023-05-19T00:37:12;8.90;;;5.33;;
35891;SDS011;21993;42.672;23.296;2023-05-19T00:39:38;7.77;;;5.63;;
35891;SDS011;21993;42.672;23.296;2023-05-19T00:42:03;7.97;;;5.30;;
35891;SDS011;21993;42.672;23.296;2023-05-19T00:44:30;6.00;;;5.33;;
35891;SDS011;21993;42.672;23.296;2023-05-19T00:46:56;8.47;;;6.23;;
35891;SDS011;21993;42.672;23.296;2023-05-19T00:49:21;8.43;;;6.20;;
35891;SDS011;21993;42.672;23.296;2023-05-19T00:51:47;6.70;;;5.50;;
35891;SDS011;21993;42.672;23.296;2023-05-19T00:54:13;7.60;;;5.37;;
35891;SDS011;21993;42.672;23.296;2023-05-19T00:56:39;6.70;;;5.33;;
35891;SDS011;21993;42.672;23.296;2023-05-19T00:59:05;9.63;;;5.70;;
35891;SDS011;21993;42.672;23.296;2023-05-19T01:01:30;5.80;;;4.90;;
35891;SDS011;21993;42.672;23.296;2023-05-19T01:03:56;7.00;;;4.80;;
35891;SDS011;21993;42.672;23.296;2023-05-19T01:06:23;8.70;;;5.23;;
35891;SDS011;21993;42.672;23.296;2023-05-19T01:08:49;5.80;;;5.20;;
35891;SDS011;21993;42.672;23.296;2023-05-19T01:11:15;7.23;;;5.77;;
35891;SDS011;21993;42.672;23.296;2023-05-19T01:13:41;6.37;;;5.20;;
35891;SDS011;21993;42.672;23.296;2023-05-19T01:18:55;6.70;;;5.20;;
35891;SDS011;21993;42.672;23.296;2023-05-19T01:24:33;7.10;;;5.20;;
35891;SDS011;21993;42.672;23.296;2023-05-19T01:32:52;7.43;;;5.33;;
35891;SDS011;21993;42.672;23.296;2023-05-19T01:35:24;6.90;;;5.37;;
35891;SDS011;21993;42.672;23.296;2023-05-19T01:37:51;9.33;;;6.57;;
35891;SDS011;21993;42.672;23.296;2023-05-19T01:40:20;6.90;;;5.60;;
35891;SDS011;21993;42.672;23.296;2023-05-19T01:42:46;9.07;;;5.87;;
35891;SDS011;21993;42.672;23.296;2023-05-19T01:45:14;6.87;;;5.50;;
35891;SDS011;21993;42.672;23.296;2023-05-19T01:47:42;8.57;;;5.73;;
35891;SDS011;21993;42.672;23.296;2023-05-19T01:50:13;5.73;;;5.13;;
35891;SDS011;21993;42.672;23.296;2023-05-19T01:52:38;8.37;;;6.27;;
35891;SDS011;21993;42.672;23.296;2023-05-19T01:55:04;9.63;;;6.47;;
35891;SDS011;21993;42.672;23.296;2023-05-19T02:00:45;7.70;;;5.73;;
35891;SDS011;21993;42.672;23.296;2023-05-19T02:03:25;7.17;;;6.10;;
35891;SDS011;21993;42.672;23.296;2023-05-19T02:09:11;8.23;;;6.47;;
35891;SDS011;21993;42.672;23.296;2023-05-19T02:14:03;11.73;;;6.20;;
35891;SDS011;21993;42.672;23.296;2023-05-19T02:16:33;8.20;;;6.63;;
35891;SDS011;21993;42.672;23.296;2023-05-19T02:19:00;9.00;;;6.37;;
35891;SDS011;21993;42.672;23.296;2023-05-19T02:21:25;8.63;;;6.13;;
35891;SDS011;21993;42.672;23.296;2023-05-19T02:23:51;8.30;;;6.53;;
35891;SDS011;21993;42.672;23.296;2023-05-19T02:26:16;9.87;;;6.83;;
35891;SDS011;21993;42.672;23.296;2023-05-19T02:28:41;11.10;;;6.50;;
35891;SDS011;21993;42.672;23.296;2023-05-19T02:31:07;8.90;;;6.60;;
35891;SDS011;21993;42.672;23.296;2023-05-19T02:33:34;7.70;;;6.57;;
35891;SDS011;21993;42.672;23.296;2023-05-19T02:36:00;8.60;;;6.87;;
35891;SDS011;21993;42.672;23.296;2023-05-19T02:38:25;8.33;;;6.77;;
35891;SDS011;21993;42.672;23.296;2023-05-19T02:40:51;12.97;;;7.43;;
35891;SDS011;21993;42.672;23.296;2023-05-19T02:43:17;9.97;;;7.33;;
35891;SDS011;21993;42.672;23.296;2023-05-19T02:45:42;9.43;;;7.00;;
35891;SDS011;21993;42.672;23.296;2023-05-19T02:48:08;10.47;;;6.77;;
35891;SDS011;21993;42.672;23.296;2023-05-19T02:50:33;8.47;;;7.37;;
35891;SDS011;21993;42.672;23.296;2023-05-19T02:52:59;9.77;;;7.37;;
35891;SDS011;21993;42.672;23.296;2023-05-19T02:55:24;10.40;;;7.57;;
35891;SDS011;21993;42.672;23.296;2023-05-19T02:57:49;11.63;;;9.33;;
35891;SDS011;21993;42.672;23.296;2023-05-19T03:00:15;9.23;;;6.83;;
35891;SDS011;21993;42.672;23.296;2023-05-19T03:02:40;11.77;;;7.43;;
35891;SDS011;21993;42.672;23.296;2023-05-19T03:05:08;10.13;;;7.77;;
35891;SDS011;21993;42.672;23.296;2023-05-19T03:07:34;10.97;;;8.30;;
35891;SDS011;21993;42.672;23.296;2023-05-19T03:10:00;11.17;;;8.67;;
35891;SDS011;21993;42.672;23.296;2023-05-19T03:12:28;12.27;;;8.60;;
35891;SDS011;21993;42.672;23.296;2023-05-19T03:14:53;15.17;;;9.00;;
35891;SDS011;21993;42.672;23.296;2023-05-19T03:17:19;11.53;;;8.80;;
35891;SDS011;21993;42.672;23.296;2023-05-19T03:19:44;11.67;;;9.23;;
35891;SDS011;21993;42.672;23.296;2023-05-19T03:22:10;11.83;;;8.77;;
35891;SDS011;21993;42.672;23.296;2023-05-19T03:24:35;13.43;;;9.13;;
35891;SDS011;21993;42.672;23.296;2023-05-19T03:27:01;12.97;;;8.77;;
35891;SDS011;21993;42.672;23.296;2023-05-19T03:29:26;12.13;;;8.40;;
35891;SDS011;21993;42.672;23.296;2023-05-19T03:31:52;12.63;;;9.00;;
35891;SDS011;21993;42.672;23.296;2023-05-19T03:34:17;14.43;;;9.17;;
35891;SDS011;21993;42.672;23.296;2023-05-19T03:36:42;13.90;;;9.60;;
35891;SDS011;21993;42.672;23.296;2023-05-19T03:39:09;13.37;;;8.90;;
35891;SDS011;21993;42.672;23.296;2023-05-19T03:41:35;11.93;;;8.77;;
35891;SDS011;21993;42.672;23.296;2023-05-19T03:44:00;14.37;;;8.83;;
35891;SDS011;21993;42.672;23.296;2023-05-19T03:46:26;17.07;;;10.00;;
35891;SDS011;21993;42.672;23.296;2023-05-19T03:48:51;11.77;;;8.90;;
35891;SDS011;21993;42.672;23.296;2023-05-19T03:51:16;13.70;;;9.77;;
35891;SDS011;21993;42.672;23.296;2023-05-19T03:53:42;12.53;;;9.13;;
35891;SDS011;21993;42.672;23.296;2023-05-19T03:56:08;12.30;;;9.23;;
35891;SDS011;21993;42.672;23.296;2023-05-19T03:58:37;13.17;;;9.33;;
35891;SDS011;21993;42.672;23.296;2023-05-19T04:01:04;12.50;;;8.90;;
35891;SDS011;21993;42.672;23.296;2023-05-19T04:03:30;11.70;;;8.90;;
35891;SDS011;21993;42.672;23.296;2023-05-19T04:05:55;11.27;;;8.60;;
35891;SDS011;21993;42.672;23.296;2023-05-19T04:08:21;13.80;;;9.00;;
35891;SDS011;21993;42.672;23.296;2023-05-19T04:10:46;11.10;;;9.73;;
35891;SDS011;21993;42.672;23.296;2023-05-19T04:13:11;12.17;;;8.90;;
35891;SDS011;21993;42.672;23.296;2023-05-19T04:15:37;14.37;;;10.10;;
35891;SDS011;21993;42.672;23.296;2023-05-19T04:18:02;12.33;;;9.23;;
35891;SDS011;21993;42.672;23.296;2023-05-19T04:20:27;14.03;;;10.50;;
35891;SDS011;21993;42.672;23.296;2023-05-19T04:22:53;11.50;;;9.20;;
35891;SDS011;21993;42.672;23.296;2023-05-19T04:25:18;14.23;;;9.47;;
35891;SDS011;21993;42.672;23.296;2023-05-19T04:27:44;15.43;;;10.10;;
35891;SDS011;21993;42.672;23.296;2023-05-19T04:30:09;12.33;;;8.83;;
35891;SDS011;21993;42.672;23.296;2023-05-19T04:32:36;16.57;;;9.50;;
35891;SDS011;21993;42.672;23.296;2023-05-19T04:35:02;12.07;;;8.97;;
35891;SDS011;21993;42.672;23.296;2023-05-19T04:37:28;14.90;;;9.57;;
35891;SDS011;21993;42.672;23.296;2023-05-19T04:39:54;12.00;;;9.20;;
35891;SDS011;21993;42.672;23.296;2023-05-19T04:42:19;13.63;;;9.93;;
35891;SDS011;21993;42.672;23.296;2023-05-19T04:44:45;12.60;;;9.83;;
35891;SDS011;21993;42.672;23.296;2023-05-19T04:47:13;15.00;;;9.93;;
35891;SDS011;21993;42.672;23.296;2023-05-19T04:49:39;16.03;;;10.67;;
35891;SDS011;21993;42.672;23.296;2023-05-19T04:52:05;13.63;;;9.10;;
35891;SDS011;21993;42.672;23.296;2023-05-19T04:54:33;13.50;;;9.33;;
35891;SDS011;21993;42.672;23.296;2023-05-19T04:56:59;15.93;;;10.10;;
35891;SDS011;21993;42.672;23.296;2023-05-19T04:59:24;14.50;;;9.63;;
35891;SDS011;21993;42.672;23.296;2023-05-19T05:01:49;11.80;;;9.53;;
35891;SDS011;21993;42.672;23.296;2023-05-19T05:04:15;14.53;;;10.20;;
35891;SDS011;21993;42.672;23.296;2023-05-19T05:06:40;11.93;;;9.43;;
35891;SDS011;21993;42.672;23.296;2023-05-19T05:09:11;12.70;;;9.83;;
35891;SDS011;21993;42.672;23.296;2023-05-19T05:11:37;14.60;;;10.23;;
35891;SDS011;21993;42.672;23.296;2023-05-19T05:14:03;13.30;;;9.80;;
35891;SDS011;21993;42.672;23.296;2023-05-19T05:16:28;17.90;;;9.93;;
35891;SDS011;21993;42.672;23.296;2023-05-19T05:18:54;16.50;;;10.43;;
35891;SDS011;21993;42.672;23.296;2023-05-19T05:21:21;13.27;;;9.40;;
35891;SDS011;21993;42.672;23.296;2023-05-19T05:23:48;13.57;;;9.70;;
35891;SDS011;21993;42.672;23.296;2023-05-19T05:26:17;11.67;;;9.27;;
35891;SDS011;21993;42.672;23.296;2023-05-19T05:28:44;13.23;;;9.23;;
35891;SDS011;21993;42.672;23.296;2023-05-19T05:31:09;14.13;;;9.17;;
35891;SDS011;21993;42.672;23.296;2023-05-19T05:33:35;10.90;;;7.97;;
35891;SDS011;21993;42.672;23.296;2023-05-19T05:36:02;11.80;;;9.07;;
35891;SDS011;21993;42.672;23.296;2023-05-19T05:38:28;13.40;;;9.07;;
35891;SDS011;21993;42.672;23.296;2023-05-19T05:40:54;15.40;;;10.00;;
35891;SDS011;21993;42.672;23.296;2023-05-19T05:43:19;12.23;;;8.83;;
35891;SDS011;21993;42.672;23.296;2023-05-19T05:45:45;12.13;;;9.17;;
35891;SDS011;21993;42.672;23.296;2023-05-19T05:48:10;14.60;;;9.03;;
35891;SDS011;21993;42.672;23.296;2023-05-19T05:50:36;16.00;;;9.10;;
35891;SDS011;21993;42.672;23.296;2023-05-19T05:53:02;14.33;;;9.10;;
35891;SDS011;21993;42.672;23.296;2023-05-19T05:55:29;16.17;;;9.67;;
35891;SDS011;21993;42.672;23.296;2023-05-19T05:57:54;13.13;;;8.87;;
35891;SDS011;21993;42.672;23.296;2023-05-19T06:00:22;13.13;;;9.10;;
35891;SDS011;21993;42.672;23.296;2023-05-19T06:02:49;12.80;;;9.23;;
35891;SDS011;21993;42.672;23.296;2023-05-19T06:05:16;14.23;;;8.73;;
35891;SDS011;21993;42.672;23.296;2023-05-19T06:07:42;12.20;;;8.90;;
35891;SDS011;21993;42.672;23.296;2023-05-19T06:10:08;11.47;;;9.07;;
35891;SDS011;21993;42.672;23.296;2023-05-19T06:12:34;13.10;;;9.40;;
35891;SDS011;21993;42.672;23.296;2023-05-19T06:15:03;12.87;;;9.27;;
35891;SDS011;21993;42.672;23.296;2023-05-19T06:17:28;14.93;;;7.87;;
35891;SDS011;21993;42.672;23.296;2023-05-19T06:19:54;14.10;;;8.47;;
35891;SDS011;21993;42.672;23.296;2023-05-19T06:22:19;15.77;;;8.10;;
35891;SDS011;21993;42.672;23.296;2023-05-19T06:24:45;10.07;;;7.97;;
35891;SDS011;21993;42.672;23.296;2023-05-19T06:27:10;9.20;;;8.10;;
35891;SDS011;21993;42.672;23.296;2023-05-19T06:29:36;10.33;;;7.97;;
35891;SDS011;21993;42.672;23.296;2023-05-19T06:32:01;13.27;;;7.07;;
35891;SDS011;21993;42.672;23.296;2023-05-19T06:34:26;9.70;;;7.23;;
35891;SDS011;21993;42.672;23.296;2023-05-19T06:36:52;8.03;;;6.17;;
35891;SDS011;21993;42.672;23.296;2023-05-19T06:39:17;9.90;;;6.77;;
35891;SDS011;21993;42.672;23.296;2023-05-19T06:41:42;8.57;;;6.97;;
35891;SDS011;21993;42.672;23.296;2023-05-19T06:44:08;7.93;;;6.20;;
35891;SDS011;21993;42.672;23.296;2023-05-19T06:46:33;12.77;;;6.63;;
35891;SDS011;21993;42.672;23.296;2023-05-19T06:48:59;10.90;;;7.63;;
35891;SDS011;21993;42.672;23.296;2023-05-19T06:51:24;7.33;;;6.10;;
35891;SDS011;21993;42.672;23.296;2023-05-19T06:53:50;7.73;;;6.20;;
35891;SDS011;21993;42.672;23.296;2023-05-19T06:56:16;11.33;;;7.10;;
35891;SDS011;21993;42.672;23.296;2023-05-19T06:58:43;13.73;;;7.10;;
35891;SDS011;21993;42.672;23.296;2023-05-19T07:01:08;8.73;;;6.50;;
35891;SDS011;21993;42.672;23.296;2023-05-19T07:03:34;6.67;;;5.10;;
35891;SDS011;21993;42.672;23.296;2023-05-19T07:06:00;7.87;;;5.40;;
35891;SDS011;21993;42.672;23.296;2023-05-19T07:08:25;8.87;;;5.60;;
35891;SDS011;21993;42.672;23.296;2023-05-19T07:10:51;7.93;;;6.63;;
35891;SDS011;21993;42.672;23.296;2023-05-19T07:13:17;10.27;;;6.80;;
35891;SDS011;21993;42.672;23.296;2023-05-19T07:15:42;8.87;;;6.37;;
35891;SDS011;21993;42.672;23.296;2023-05-19T07:18:08;7.37;;;5.60;;
35891;SDS011;21993;42.672;23.296;2023-05-19T07:20:33;10.70;;;6.67;;
35891;SDS011;21993;42.672;23.296;2023-05-19T07:22:59;7.33;;;5.90;;
35891;SDS011;21993;42.672;23.296;2023-05-19T07:25:26;10.20;;;6.50;;
35891;SDS011;21993;42.672;23.296;2023-05-19T07:27:54;9.53;;;6.30;;
35891;SDS011;21993;42.672;23.296;2023-05-19T07:30:20;8.37;;;5.87;;
35891;SDS011;21993;42.672;23.296;2023-05-19T07:32:45;7.00;;;6.23;;
35891;SDS011;21993;42.672;23.296;2023-05-19T07:35:11;9.07;;;5.90;;
35891;SDS011;21993;42.672;23.296;2023-05-19T07:37:36;10.17;;;7.00;;
35891;SDS011;21993;42.672;23.296;2023-05-19T07:40:02;10.30;;;7.23;;
35891;SDS011;21993;42.672;23.296;2023-05-19T07:42:28;8.10;;;6.33;;
35891;SDS011;21993;42.672;23.296;2023-05-19T07:44:53;8.63;;;6.80;;
35891;SDS011;21993;42.672;23.296;2023-05-19T07:47:19;11.67;;;7.40;;
35891;SDS011;21993;42.672;23.296;2023-05-19T07:49:44;9.90;;;6.67;;
35891;SDS011;21993;42.672;23.296;2023-05-19T07:52:10;10.53;;;8.23;;
35891;SDS011;21993;42.672;23.296;2023-05-19T07:54:35;9.73;;;7.47;;
35891;SDS011;21993;42.672;23.296;2023-05-19T07:57:01;9.67;;;6.60;;
35891;SDS011;21993;42.672;23.296;2023-05-19T07:59:26;10.97;;;6.70;;
35891;SDS011;21993;42.672;23.296;2023-05-19T08:01:51;9.90;;;7.67;;
35891;SDS011;21993;42.672;23.296;2023-05-19T08:04:17;11.27;;;7.57;;
35891;SDS011;21993;42.672;23.296;2023-05-19T08:06:42;11.10;;;7.23;;
35891;SDS011;21993;42.672;23.296;2023-05-19T08:09:08;12.47;;;7.80;;
35891;SDS011;21993;42.672;23.296;2023-05-19T08:11:34;10.23;;;7.87;;
35891;SDS011;21993;42.672;23.296;2023-05-19T08:14:00;10.80;;;7.50;;
35891;SDS011;21993;42.672;23.296;2023-05-19T08:16:26;12.43;;;8.03;;
35891;SDS011;21993;42.672;23.296;2023-05-19T08:18:51;8.93;;;7.43;;
35891;SDS011;21993;42.672;23.296;2023-05-19T08:21:16;9.63;;;7.80;;
35891;SDS011;21993;42.672;23.296;2023-05-19T08:23:42;10.13;;;7.80;;
35891;SDS011;21993;42.672;23.296;2023-05-19T08:26:07;12.37;;;7.70;;
35891;SDS011;21993;42.672;23.296;2023-05-19T08:28:33;9.73;;;7.50;;
35891;SDS011;21993;42.672;23.296;2023-05-19T08:30:58;14.37;;;7.87;;
35891;SDS011;21993;42.672;23.296;2023-05-19T08:33:24;11.50;;;7.37;;
35891;SDS011;21993;42.672;23.296;2023-05-19T08:35:49;13.50;;;8.27;;
35891;SDS011;21993;42.672;23.296;2023-05-19T08:38:15;10.53;;;8.03;;
35891;SDS011;21993;42.672;23.296;2023-05-19T08:40:40;21.30;;;8.30;;
35891;SDS011;21993;42.672;23.296;2023-05-19T08:43:06;12.50;;;8.63;;
35891;SDS011;21993;42.672;23.296;2023-05-19T08:45:32;12.13;;;8.63;;
35891;SDS011;21993;42.672;23.296;2023-05-19T08:48:02;11.13;;;8.60;;
35891;SDS011;21993;42.672;23.296;2023-05-19T08:50:28;10.27;;;8.90;;
35891;SDS011;21993;42.672;23.296;2023-05-19T08:53:12;11.90;;;8.47;;
35891;SDS011;21993;42.672;23.296;2023-05-19T08:55:49;9.50;;;8.30;;
35891;SDS011;21993;42.672;23.296;2023-05-19T08:58:26;12.20;;;8.17;;
35891;SDS011;21993;42.672;23.296;2023-05-19T09:00:52;13.53;;;8.77;;
35891;SDS011;21993;42.672;23.296;2023-05-19T09:03:18;12.70;;;9.00;;
35891;SDS011;21993;42.672;23.296;2023-05-19T09:05:45;16.97;;;8.63;;
35891;SDS011;21993;42.672;23.296;2023-05-19T09:08:11;9.67;;;8.10;;
35891;SDS011;21993;42.672;23.296;2023-05-19T09:10:36;11.93;;;8.40;;
35891;SDS011;21993;42.672;23.296;2023-05-19T09:13:02;13.60;;;8.73;;
35891;SDS011;21993;42.672;23.296;2023-05-19T09:15:29;11.40;;;8.87;;
35891;SDS011;21993;42.672;23.296;2023-05-19T09:18:05;13.63;;;8.60;;
35891;SDS011;21993;42.672;23.296;2023-05-19T09:20:35;12.17;;;8.87;;
35891;SDS011;21993;42.672;23.296;2023-05-19T09:23:01;10.47;;;8.27;;
35891;SDS011;21993;42.672;23.296;2023-05-19T09:25:27;11.73;;;8.67;;
35891;SDS011;21993;42.672;23.296;2023-05-19T09:27:53;11.17;;;9.00;;
35891;SDS011;21993;42.672;23.296;2023-05-19T09:30:19;11.93;;;8.83;;
35891;SDS011;21993;42.672;23.296;2023-05-19T09:32:45;12.90;;;8.70;;
35891;SDS011;21993;42.672;23.296;2023-05-19T09:35:11;11.93;;;8.90;;
35891;SDS011;21993;42.672;23.296;2023-05-19T09:37:40;13.13;;;8.40;;
35891;SDS011;21993;42.672;23.296;2023-05-19T09:40:07;12.50;;;9.33;;
35891;SDS011;21993;42.672;23.296;2023-05-19T09:42:37;11.70;;;8.57;;
35891;SDS011;21993;42.672;23.296;2023-05-19T09:45:04;12.73;;;8.07;;
35891;SDS011;21993;42.672;23.296;2023-05-19T09:47:34;10.27;;;8.53;;
35891;SDS011;21993;42.672;23.296;2023-05-19T09:50:02;12.90;;;9.23;;
35891;SDS011;21993;42.672;23.296;2023-05-19T09:52:29;12.90;;;9.37;;
35891;SDS011;21993;42.672;23.296;2023-05-19T09:54:55;12.33;;;9.03;;
35891;SDS011;21993;42.672;23.296;2023-05-19T09:57:24;10.93;;;8.50;;
35891;SDS011;21993;42.672;23.296;2023-05-19T09:59:53;13.90;;;8.67;;
35891;SDS011;21993;42.672;23.296;2023-05-19T10:02:21;12.83;;;8.73;;
35891;SDS011;21993;42.672;23.296;2023-05-19T10:04:49;10.57;;;8.87;;
35891;SDS011;21993;42.672;23.296;2023-05-19T10:07:16;9.67;;;8.03;;
35891;SDS011;21993;42.672;23.296;2023-05-19T10:09:43;13.53;;;8.60;;
35891;SDS011;21993;42.672;23.296;2023-05-19T10:12:10;16.70;;;8.93;;
35891;SDS011;21993;42.672;23.296;2023-05-19T10:14:37;11.37;;;8.67;;
35891;SDS011;21993;42.672;23.296;2023-05-19T10:17:03;11.90;;;9.03;;
35891;SDS011;21993;42.672;23.296;2023-05-19T10:19:28;13.17;;;9.43;;
35891;SDS011;21993;42.672;23.296;2023-05-19T10:21:54;15.57;;;9.03;;
35891;SDS011;21993;42.672;23.296;2023-05-19T10:24:20;12.73;;;9.63;;
35891;SDS011;21993;42.672;23.296;2023-05-19T10:26:48;11.03;;;8.43;;
35891;SDS011;21993;42.672;23.296;2023-05-19T10:29:30;10.83;;;9.00;;
35891;SDS011;21993;42.672;23.296;2023-05-19T10:32:18;12.53;;;8.93;;
35891;SDS011;21993;42.672;23.296;2023-05-19T10:37:44;13.07;;;9.57;;
35891;SDS011;21993;42.672;23.296;2023-05-19T10:40:20;10.43;;;8.80;;
35891;SDS011;21993;42.672;23.296;2023-05-19T10:45:21;11.00;;;9.07;;
35891;SDS011;21993;42.672;23.296;2023-05-19T10:47:51;17.20;;;8.80;;
35891;SDS011;21993;42.672;23.296;2023-05-19T10:50:16;12.33;;;8.97;;
35891;SDS011;21993;42.672;23.296;2023-05-19T10:52:41;10.67;;;7.70;;
35891;SDS011;21993;42.672;23.296;2023-05-19T10:55:09;11.53;;;8.13;;
35891;SDS011;21993;42.672;23.296;2023-05-19T10:57:52;11.03;;;8.10;;
35891;SDS011;21993;42.672;23.296;2023-05-19T11:00:27;9.17;;;7.17;;
35891;SDS011;21993;42.672;23.296;2023-05-19T11:02:55;9.03;;;7.53;;
35891;SDS011;21993;42.672;23.296;2023-05-19T11:05:37;10.40;;;8.70;;
35891;SDS011;21993;42.672;23.296;2023-05-19T11:08:04;11.10;;;8.13;;
35891;SDS011;21993;42.672;23.296;2023-05-19T11:10:32;15.97;;;9.00;;
35891;SDS011;21993;42.672;23.296;2023-05-19T11:12:58;13.83;;;8.37;;
35891;SDS011;21993;42.672;23.296;2023-05-19T11:15:24;11.80;;;7.90;;
35891;SDS011;21993;42.672;23.296;2023-05-19T11:17:51;11.07;;;7.83;;
35891;SDS011;21993;42.672;23.296;2023-05-19T11:20:27;21.60;;;14.37;;
35891;SDS011;21993;42.672;23.296;2023-05-19T11:28:10;10.87;;;8.13;;
35891;SDS011;21993;42.672;23.296;2023-05-19T11:30:38;14.70;;;8.17;;
35891;SDS011;21993;42.672;23.296;2023-05-19T11:33:06;13.50;;;8.93;;
35891;SDS011;21993;42.672;23.296;2023-05-19T11:35:32;11.60;;;7.97;;
35891;SDS011;21993;42.672;23.296;2023-05-19T11:37:59;12.43;;;8.03;;
35891;SDS011;21993;42.672;23.296;2023-05-19T11:40:25;13.37;;;7.73;;
35891;SDS011;21993;42.672;23.296;2023-05-19T11:42:51;10.30;;;7.90;;
35891;SDS011;21993;42.672;23.296;2023-05-19T11:45:16;12.93;;;7.90;;
35891;SDS011;21993;42.672;23.296;2023-05-19T11:47:48;10.20;;;8.03;;
35891;SDS011;21993;42.672;23.296;2023-05-19T11:50:15;10.70;;;8.00;;
35891;SDS011;21993;42.672;23.296;2023-05-19T11:52:43;12.50;;;8.30;;
35891;SDS011;21993;42.672;23.296;2023-05-19T11:55:14;9.93;;;7.73;;
35891;SDS011;21993;42.672;23.296;2023-05-19T11:57:40;15.67;;;8.07;;
35891;SDS011;21993;42.672;23.296;2023-05-19T12:00:05;10.47;;;7.63;;
35891;SDS011;21993;42.672;23.296;2023-05-19T12:02:32;10.93;;;8.23;;
35891;SDS011;21993;42.672;23.296;2023-05-19T12:04:57;12.93;;;7.93;;
35891;SDS011;21993;42.672;23.296;2023-05-19T12:07:23;14.80;;;9.40;;
35891;SDS011;21993;42.672;23.296;2023-05-19T12:09:50;14.97;;;9.17;;
35891;SDS011;21993;42.672;23.296;2023-05-19T12:12:16;10.53;;;9.17;;
35891;SDS011;21993;42.672;23.296;2023-05-19T12:14:45;11.97;;;8.80;;
35891;SDS011;21993;42.672;23.296;2023-05-19T12:17:12;12.60;;;8.37;;
35891;SDS011;21993;42.672;23.296;2023-05-19T12:19:39;12.50;;;8.13;;
35891;SDS011;21993;42.672;23.296;2023-05-19T12:22:06;12.10;;;8.40;;
35891;SDS011;21993;42.672;23.296;2023-05-19T12:24:33;12.63;;;8.10;;
35891;SDS011;21993;42.672;23.296;2023-05-19T12:27:09;13.10;;;8.30;;
35891;SDS011;21993;42.672;23.296;2023-05-19T12:29:42;10.43;;;7.30;;
35891;SDS011;21993;42.672;23.296;2023-05-19T12:32:12;13.93;;;8.10;;
35891;SDS011;21993;42.672;23.296;2023-05-19T12:34:38;10.53;;;7.83;;
35891;SDS011;21993;42.672;23.296;2023-05-19T12:37:04;9.70;;;6.83;;
35891;SDS011;21993;42.672;23.296;2023-05-19T12:39:30;10.93;;;7.23;;
35891;SDS011;21993;42.672;23.296;2023-05-19T12:42:03;9.87;;;7.33;;
35891;SDS011;21993;42.672;23.296;2023-05-19T12:44:35;14.30;;;8.10;;
35891;SDS011;21993;42.672;23.296;2023-05-19T12:47:03;11.17;;;6.90;;
35891;SDS011;21993;42.672;23.296;2023-05-19T12:49:29;13.00;;;7.57;;
35891;SDS011;21993;42.672;23.296;2023-05-19T12:51:55;9.17;;;7.10;;
35891;SDS011;21993;42.672;23.296;2023-05-19T12:54:20;8.47;;;6.67;;
35891;SDS011;21993;42.672;23.296;2023-05-19T12:56:49;11.30;;;6.63;;
35891;SDS011;21993;42.672;23.296;2023-05-19T12:59:20;8.10;;;6.83;;
35891;SDS011;21993;42.672;23.296;2023-05-19T13:01:53;10.97;;;7.20;;
35891;SDS011;21993;42.672;23.296;2023-05-19T13:04:20;7.70;;;5.93;;
35891;SDS011;21993;42.672;23.296;2023-05-19T13:06:45;8.07;;;5.77;;
35891;SDS011;21993;42.672;23.296;2023-05-19T13:09:13;8.70;;;6.07;;
35891;SDS011;21993;42.672;23.296;2023-05-19T13:11:39;8.60;;;6.07;;
35891;SDS011;21993;42.672;23.296;2023-05-19T13:14:04;8.87;;;5.87;;
35891;SDS011;21993;42.672;23.296;2023-05-19T13:16:29;8.17;;;6.13;;
35891;SDS011;21993;42.672;23.296;2023-05-19T13:18:55;10.57;;;6.13;;
35891;SDS011;21993;42.672;23.296;2023-05-19T13:21:20;7.90;;;5.87;;
35891;SDS011;21993;42.672;23.296;2023-05-19T13:23:46;8.93;;;5.73;;
35891;SDS011;21993;42.672;23.296;2023-05-19T13:26:11;8.97;;;6.60;;
35891;SDS011;21993;42.672;23.296;2023-05-19T13:28:37;9.93;;;5.47;;
35891;SDS011;21993;42.672;23.296;2023-05-19T13:31:02;9.27;;;5.93;;
35891;SDS011;21993;42.672;23.296;2023-05-19T13:33:28;7.60;;;5.60;;
35891;SDS011;21993;42.672;23.296;2023-05-19T13:35:53;11.50;;;5.80;;
35891;SDS011;21993;42.672;23.296;2023-05-19T13:38:18;8.73;;;5.80;;
35891;SDS011;21993;42.672;23.296;2023-05-19T13:40:44;7.93;;;5.83;;
35891;SDS011;21993;42.672;23.296;2023-05-19T13:43:09;11.80;;;6.50;;
35891;SDS011;21993;42.672;23.296;2023-05-19T13:45:35;8.90;;;5.93;;
35891;SDS011;21993;42.672;23.296;2023-05-19T13:48:00;10.17;;;6.23;;
35891;SDS011;21993;42.672;23.296;2023-05-19T13:50:26;10.13;;;6.53;;
35891;SDS011;21993;42.672;23.296;2023-05-19T13:52:51;10.23;;;6.97;;
35891;SDS011;21993;42.672;23.296;2023-05-19T13:55:17;11.50;;;7.30;;
35891;SDS011;21993;42.672;23.296;2023-05-19T13:57:43;9.07;;;6.93;;
35891;SDS011;21993;42.672;23.296;2023-05-19T14:00:09;8.80;;;6.57;;
35891;SDS011;21993;42.672;23.296;2023-05-19T14:02:34;12.00;;;7.50;;
35891;SDS011;21993;42.672;23.296;2023-05-19T14:05:01;9.73;;;6.80;;
35891;SDS011;21993;42.672;23.296;2023-05-19T14:07:27;9.97;;;7.37;;
35891;SDS011;21993;42.672;23.296;2023-05-19T14:09:54;10.23;;;7.30;;
35891;SDS011;21993;42.672;23.296;2023-05-19T14:12:20;11.13;;;8.23;;
35891;SDS011;21993;42.672;23.296;2023-05-19T14:14:45;10.47;;;7.30;;
35891;SDS011;21993;42.672;23.296;2023-05-19T14:17:12;10.03;;;7.67;;
35891;SDS011;21993;42.672;23.296;2023-05-19T14:19:38;12.57;;;7.60;;
35891;SDS011;21993;42.672;23.296;2023-05-19T14:22:03;12.50;;;7.17;;
35891;SDS011;21993;42.672;23.296;2023-05-19T14:24:29;12.97;;;7.40;;
35891;SDS011;21993;42.672;23.296;2023-05-19T14:26:54;9.90;;;7.40;;
35891;SDS011;21993;42.672;23.296;2023-05-19T14:29:19;12.20;;;8.17;;
35891;SDS011;21993;42.672;23.296;2023-05-19T14:31:45;11.83;;;7.60;;
35891;SDS011;21993;42.672;23.296;2023-05-19T14:34:10;11.53;;;7.30;;
35891;SDS011;21993;42.672;23.296;2023-05-19T14:36:36;9.00;;;6.73;;
35891;SDS011;21993;42.672;23.296;2023-05-19T14:39:01;9.57;;;7.30;;
35891;SDS011;21993;42.672;23.296;2023-05-19T14:41:27;15.40;;;7.60;;
35891;SDS011;21993;42.672;23.296;2023-05-19T14:43:52;11.60;;;8.27;;
35891;SDS011;21993;42.672;23.296;2023-05-19T14:46:17;11.30;;;7.63;;
35891;SDS011;21993;42.672;23.296;2023-05-19T14:48:43;10.90;;;8.00;;
35891;SDS011;21993;42.672;23.296;2023-05-19T14:51:08;10.23;;;7.00;;
35891;SDS011;21993;42.672;23.296;2023-05-19T14:53:33;8.60;;;6.90;;